Time;durP1;ratioP1;P1;durP2;ratioP2;P2;SDS_P1;SDS_P2;PMS_P1;PMS_P2;Temp;Humidity;BMP_temperature;BMP_pressure;BME280_temperature;BME280_humidity;BME280_pressure;Samples;Min_cycle;Max_cycle;Signal;HPM_P1;HPM_P2
2022/11/17 00:09:03;;;;;;;0.50;0.50;;;;;;;11.67;70.63;99016.28;18434497;32;20105;-58
2022/11/17 00:29:38;;;;;;;1.52;1.42;;;;;;;11.92;69.93;99029.50;18170372;32;20137;-58
2022/11/17 00:39:41;;;;;;;0.60;0.60;;;;;;;11.67;70.81;99024.13;18169480;32;20145;-58
2022/11/17 00:49:46;;;;;;;0.50;0.50;;;;;;;11.73;70.45;99017.87;18169751;32;20122;-58
2022/11/17 00:59:49;;;;;;;1.50;0.77;;;;;;;11.79;70.15;99007.22;18255288;32;20093;-58
2022/11/17 01:09:53;;;;;;;0.70;0.70;;;;;;;11.77;69.97;98999.44;18434215;32;20089;-58
2022/11/17 01:19:56;;;;;;;0.75;0.75;;;;;;;11.69;70.16;99003.16;18432956;32;20093;-58
2022/11/17 01:30:01;;;;;;;1.05;1.05;;;;;;;11.80;69.54;98982.78;18431631;32;20137;-58
2022/11/17 01:40:05;;;;;;;1.48;1.30;;;;;;;11.54;70.40;98970.47;18431917;32;20116;-58
2022/11/17 01:50:19;;;;;;;0.73;0.73;;;;;;;11.64;69.92;98966.69;18431280;32;20120;-58
2022/11/17 02:00:22;;;;;;;1.15;1.10;;;;;;;11.68;70.02;98964.84;18430891;32;20093;-58
2022/11/17 02:10:27;;;;;;;0.73;0.73;;;;;;;11.68;69.80;98960.50;18430547;32;20118;-58
2022/11/17 02:20:41;;;;;;;0.40;0.40;;;;;;;11.68;69.72;98993.59;18429732;32;20107;-58
2022/11/17 02:30:53;;;;;;;0.70;0.70;;;;;;;11.52;70.36;98984.47;18429405;32;20134;-58
2022/11/17 02:41:09;;;;;;;0.50;0.50;;;;;;;11.29;71.68;98986.87;18433132;32;20113;-59
2022/11/17 02:51:18;;;;;;;0.93;0.70;;;;;;;9.66;78.53;98986.41;18422504;32;20120;-58
2022/11/17 03:01:41;;;;;;;1.70;1.60;;;;;;;9.80;78.39;98960.91;18436456;32;20088;-58
2022/11/17 03:11:50;;;;;;;0.60;0.55;;;;;;;11.04;73.06;98964.87;18436445;32;20438;-58
2022/11/17 03:21:56;;;;;;;0.90;0.90;;;;;;;11.55;70.74;98952.16;18436008;32;20093;-58
2022/11/17 03:32:03;;;;;;;1.50;1.40;;;;;;;11.60;70.47;98933.72;18434060;32;20124;-59
2022/11/17 03:42:10;;;;;;;0.70;0.70;;;;;;;10.06;75.26;98924.72;18430407;32;20105;-58
2022/11/17 03:52:15;;;;;;;0.80;0.80;;;;;;;11.34;70.05;98922.28;18431786;32;20089;-58
2022/11/17 04:02:18;;;;;;;6.55;1.48;;;;;;;11.15;69.79;98943.69;18433094;32;20787;-58
2022/11/17 04:22:43;;;;;;;1.90;1.80;;;;;;;10.14;70.95;98960.12;18428221;32;20104;-58
2022/11/17 04:32:48;;;;;;;0.50;0.50;;;;;;;10.07;72.38;98950.75;18434039;32;20183;-58
2022/11/17 04:42:51;;;;;;;1.55;0.88;;;;;;;10.52;70.00;98970.56;18434370;32;20097;-58
2022/11/17 04:52:56;;;;;;;0.60;0.60;;;;;;;10.62;69.17;98976.44;18433476;32;20123;-58
2022/11/17 05:02:59;;;;;;;0.50;0.50;;;;;;;10.39;69.36;98972.59;18431985;32;20459;-58
2022/11/17 05:13:23;;;;;;;1.30;1.20;;;;;;;10.26;69.37;98997.28;18418491;32;20093;-58
2022/11/17 05:33:49;;;;;;;7.32;1.62;;;;;;;10.24;68.71;99012.06;18432238;32;20085;-58
2022/11/17 05:43:52;;;;;;;0.60;0.60;;;;;;;9.62;72.58;98996.03;18431178;32;20092;-58
2022/11/17 05:53:57;;;;;;;1.20;1.20;;;;;;;9.85;71.58;99012.94;18431401;32;20624;-58
2022/11/17 06:04:01;;;;;;;2.78;1.70;;;;;;;9.92;71.25;99016.28;18430609;32;20097;-58
2022/11/17 06:14:06;;;;;;;0.65;0.65;;;;;;;10.04;70.77;99026.44;18416460;32;20115;-58
2022/11/17 06:24:09;;;;;;;5.72;1.40;;;;;;;10.08;70.24;99029.81;18415944;32;20593;-59
2022/11/17 06:34:14;;;;;;;0.40;0.40;;;;;;;10.21;69.67;99043.44;18428475;32;20420;-58
2022/11/17 06:44:17;;;;;;;0.85;0.85;;;;;;;10.05;70.45;99049.00;18427238;32;20113;-58
2022/11/17 06:54:21;;;;;;;1.92;1.80;;;;;;;10.34;70.30;99044.03;18426774;32;20101;-58
2022/11/17 07:04:25;;;;;;;0.47;0.47;;;;;;;10.61;69.93;99050.38;18426021;32;20097;-58
2022/11/17 07:14:29;;;;;;;1.40;1.30;;;;;;;10.09;71.22;99047.19;18423881;32;20112;-58
2022/11/17 07:24:32;;;;;;;1.62;1.52;;;;;;;11.88;69.56;99053.16;18425956;32;20544;-58
2022/11/17 07:34:37;;;;;;;0.55;0.55;;;;;;;12.54;64.33;99044.22;18435736;32;20127;-58
2022/11/17 07:44:40;;;;;;;1.17;1.08;;;;;;;11.30;68.22;99035.63;18434513;32;20194;-58
2022/11/17 07:54:44;;;;;;;0.75;0.73;;;;;;;12.50;64.47;99030.38;18435259;32;20111;-58
2022/11/17 08:04:48;;;;;;;0.80;0.80;;;;;;;12.76;63.23;99026.06;18428698;32;20096;-58
2022/11/17 08:14:52;;;;;;;0.40;0.40;;;;;;;12.22;66.21;99044.31;18433451;32;20107;-60
2022/11/17 08:24:55;;;;;;;0.65;0.55;;;;;;;12.98;63.55;99041.91;18434119;32;20095;-59
2022/11/17 08:35:00;;;;;;;1.67;1.25;;;;;;;13.29;63.29;99055.72;18418232;32;20119;-60
2022/11/17 08:45:03;;;;;;;0.57;0.57;;;;;;;13.62;61.49;99058.06;18415091;32;154439;-60
2022/11/17 08:55:09;;;;;;;0.68;0.68;;;;;;;13.41;62.88;99062.25;18418940;32;20108;-59
2022/11/17 09:05:12;;;;;;;1.52;1.00;;;;;;;13.23;61.41;99074.25;18430717;32;20145;-60
2022/11/17 09:15:17;;;;;;;0.40;0.40;;;;;;;13.37;60.58;99085.09;18430922;32;20109;-60
2022/11/17 09:25:20;;;;;;;1.05;1.02;;;;;;;13.53;58.79;99097.72;18427030;32;20138;-60
2022/11/17 09:35:24;;;;;;;0.50;0.50;;;;;;;13.36;59.42;99101.75;18431645;32;20176;-60
2022/11/17 09:45:30;;;;;;;0.73;0.73;;;;;;;13.55;58.98;99111.63;18430916;32;20141;-60
2022/11/17 09:55:37;;;;;;;0.30;0.30;;;;;;;13.88;59.05;99106.94;18432513;32;20141;-60
2022/11/17 10:05:40;;;;;;;0.65;0.65;;;;;;;14.06;56.86;99101.91;18398802;32;20421;-60
2022/11/17 10:15:48;;;;;;;0.57;0.50;;;;;;;14.19;56.17;99088.34;18366258;32;20108;-60
2022/11/17 10:25:57;;;;;;;0.60;0.60;;;;;;;14.30;56.19;99086.16;18365732;32;20137;-60
2022/11/17 10:36:02;;;;;;;0.40;0.40;;;;;;;14.25;55.05;99078.47;18365105;32;20120;-60
2022/11/17 10:46:13;;;;;;;0.40;0.40;;;;;;;14.37;54.74;99082.41;18364130;32;20089;-60
2022/11/17 10:56:20;;;;;;;0.40;0.40;;;;;;;14.63;54.50;99090.97;18364237;32;20382;-60
2022/11/17 11:06:25;;;;;;;0.50;0.50;;;;;;;14.24;54.58;99096.88;18370960;32;20093;-60
2022/11/17 11:16:30;;;;;;;1.67;1.30;;;;;;;14.05;54.12;99097.59;18386622;32;20101;-60
2022/11/17 11:26:45;;;;;;;0.68;0.68;;;;;;;14.09;54.40;99111.44;18435413;32;20109;-60
2022/11/17 11:36:52;;;;;;;0.73;0.73;;;;;;;13.87;55.24;99120.12;18434880;32;20161;-60
2022/11/17 11:46:59;;;;;;;0.52;0.52;;;;;;;13.79;56.11;99116.91;18433606;32;20111;-60
2022/11/17 11:57:06;;;;;;;0.60;0.60;;;;;;;13.78;54.82;99136.19;18426335;32;20089;-60
2022/11/17 12:07:12;;;;;;;0.75;0.40;;;;;;;13.59;55.24;99118.47;18368925;32;20112;-60
2022/11/17 12:17:24;;;;;;;0.30;0.30;;;;;;;13.51;55.97;99117.91;18369842;32;20093;-60
2022/11/17 12:27:32;;;;;;;0.90;0.90;;;;;;;13.70;55.17;99132.06;18422594;32;20093;-60
2022/11/17 12:37:37;;;;;;;2.50;1.62;;;;;;;13.64;55.01;99129.66;18417993;32;20105;-60
2022/11/17 12:47:43;;;;;;;0.40;0.40;;;;;;;13.96;54.84;99126.78;18430688;32;20101;-61
2022/11/17 12:57:56;;;;;;;2.53;1.05;;;;;;;13.99;54.29;99117.03;18431629;32;20377;-60
2022/11/17 13:08:20;;;;;;;0.85;0.85;;;;;;;13.95;54.10;99122.44;18431510;32;20104;-60
2022/11/17 13:18:30;;;;;;;0.50;0.50;;;;;;;13.76;52.49;99127.53;18354496;32;20116;-60
2022/11/17 13:28:34;;;;;;;0.40;0.40;;;;;;;13.54;54.03;99139.63;18424256;32;20389;-60
2022/11/17 13:38:47;;;;;;;0.40;0.40;;;;;;;14.13;53.73;99142.75;18430511;32;20093;-60
2022/11/17 13:48:51;;;;;;;0.32;0.32;;;;;;;14.27;54.31;99158.00;18430010;32;20358;-60
2022/11/17 13:58:55;;;;;;;0.40;0.40;;;;;;;14.25;54.14;99159.84;18432210;32;20108;-60
2022/11/17 14:09:04;;;;;;;0.50;0.50;;;;;;;14.16;54.03;99154.94;18430134;32;20108;-60
2022/11/17 14:19:27;;;;;;;0.50;0.50;;;;;;;13.87;54.27;99160.31;18428228;32;20097;-60
2022/11/17 14:29:30;;;;;;;0.60;0.60;;;;;;;13.75;56.01;99166.00;18426566;32;20354;-60
2022/11/17 14:39:35;;;;;;;0.50;0.50;;;;;;;13.71;55.71;99162.63;18431692;32;20116;-60
2022/11/17 14:49:38;;;;;;;1.20;0.60;;;;;;;13.44;56.51;99161.78;18437199;32;20104;-60
2022/11/17 14:59:43;;;;;;;0.82;0.70;;;;;;;13.20;58.31;99150.38;18435355;32;20093;-60
2022/11/17 15:09:46;;;;;;;0.40;0.40;;;;;;;13.04;59.42;99156.09;18434275;32;20436;-60
2022/11/17 15:19:51;;;;;;;1.20;1.08;;;;;;;12.87;60.26;99139.16;18434708;32;20105;-60
2022/11/17 15:29:54;;;;;;;0.70;0.70;;;;;;;12.69;60.87;99145.84;18434679;32;20460;-61
2022/11/17 15:39:58;;;;;;;0.65;0.65;;;;;;;12.56;61.76;99175.91;18435283;32;20457;-60
2022/11/17 15:50:02;;;;;;;1.70;1.25;;;;;;;12.48;62.56;99163.94;18433244;32;20476;-60
2022/11/17 16:00:08;;;;;;;1.77;1.67;;;;;;;12.53;62.55;99155.94;18434660;32;20462;-60
2022/11/17 16:10:11;;;;;;;4.32;1.52;;;;;;;12.25;63.37;99153.25;18433196;32;20376;-60
2022/11/17 16:20:17;;;;;;;0.65;0.65;;;;;;;12.28;63.35;99138.34;18418752;32;20105;-60
2022/11/17 16:30:20;;;;;;;1.83;1.60;;;;;;;12.16;63.13;99142.16;18432481;32;20089;-60
2022/11/17 16:40:25;;;;;;;0.55;0.55;;;;;;;12.00;63.74;99146.94;18400397;32;20134;-61
2022/11/17 16:50:28;;;;;;;1.23;1.05;;;;;;;12.00;64.13;99162.63;18371015;32;20089;-60
2022/11/17 17:00:33;;;;;;;1.45;1.23;;;;;;;11.89;64.68;99196.91;18383233;32;20161;-61
2022/11/17 17:10:36;;;;;;;0.62;0.62;;;;;;;11.98;64.62;99179.25;18384478;32;20093;-61
2022/11/17 17:20:50;;;;;;;0.60;0.60;;;;;;;11.97;64.88;99191.50;18367386;32;20141;-61
2022/11/17 17:30:54;;;;;;;1.70;1.60;;;;;;;11.97;65.20;99217.66;18401580;32;20128;-60
2022/11/17 17:41:04;;;;;;;1.70;1.60;;;;;;;11.94;65.51;99209.88;18402743;32;20107;-60
2022/11/17 17:51:09;;;;;;;0.40;0.40;;;;;;;12.04;65.51;99211.38;18386566;32;20093;-61
2022/11/17 18:01:15;;;;;;;1.10;1.08;;;;;;;11.40;67.05;99196.47;18363808;32;20096;-61
2022/11/17 18:11:20;;;;;;;1.23;1.17;;;;;;;12.05;64.93;99197.41;18386523;32;20092;-60
2022/11/17 18:21:25;;;;;;;1.05;0.85;;;;;;;12.02;65.13;99188.75;18414729;32;20094;-61
2022/11/17 18:31:31;;;;;;;1.75;1.65;;;;;;;12.04;65.57;99173.91;18413291;32;20513;-60
2022/11/17 18:41:36;;;;;;;4.30;1.17;;;;;;;12.08;65.66;99183.38;18411351;32;20107;-61
2022/11/17 18:51:39;;;;;;;2.22;2.03;;;;;;;12.07;65.81;99169.44;18389344;32;20131;-61
2022/11/17 19:01:44;;;;;;;1.85;1.75;;;;;;;12.21;65.23;99170.81;18359444;32;20155;-61
2022/11/17 19:11:47;;;;;;;0.60;0.60;;;;;;;12.14;65.51;99154.44;18360041;32;20098;-60
2022/11/17 19:21:52;;;;;;;1.80;1.30;;;;;;;12.10;65.40;99171.13;18377157;32;20119;-60
2022/11/17 19:31:55;;;;;;;3.15;2.90;;;;;;;12.07;65.68;99153.75;18375405;32;20098;-61
2022/11/17 19:41:59;;;;;;;3.20;1.50;;;;;;;12.18;65.62;99155.22;18367827;32;20121;-61
2022/11/17 19:52:03;;;;;;;3.60;2.35;;;;;;;12.10;65.99;99146.72;18367604;32;20389;-61
2022/11/17 20:02:10;;;;;;;1.60;1.33;;;;;;;12.18;65.82;99153.44;18366173;32;20089;-61
2022/11/17 20:12:14;;;;;;;1.30;1.20;;;;;;;12.14;66.04;99174.50;18402523;32;20628;-61
2022/11/17 20:22:18;;;;;;;0.82;0.82;;;;;;;12.15;66.00;99171.84;18431034;32;20449;-61
2022/11/17 20:32:22;;;;;;;0.93;0.62;;;;;;;12.01;66.85;99132.13;18430109;32;20096;-61
2022/11/17 20:42:26;;;;;;;2.10;1.67;;;;;;;12.19;66.16;99176.09;18417249;32;20179;-61
2022/11/17 20:52:31;;;;;;;1.17;1.08;;;;;;;12.16;66.36;99180.56;18430057;32;20100;-61
2022/11/17 21:02:35;;;;;;;0.70;0.70;;;;;;;12.02;66.23;99167.84;18430383;32;20435;-61
2022/11/17 21:12:38;;;;;;;1.30;1.20;;;;;;;12.03;66.03;99172.19;18429957;32;20101;-61
2022/11/17 21:22:43;;;;;;;1.00;0.93;;;;;;;12.01;65.92;99153.88;18429729;32;20115;-61
2022/11/17 21:32:46;;;;;;;3.20;2.95;;;;;;;11.81;66.34;99146.63;18430846;32;20089;-60
2022/11/17 21:42:51;;;;;;;1.90;1.65;;;;;;;11.94;66.15;99155.81;18417803;32;20086;-60
2022/11/17 21:52:54;;;;;;;5.70;1.52;;;;;;;11.93;66.66;99163.69;18431741;32;20093;-60
2022/11/17 22:02:58;;;;;;;1.60;1.45;;;;;;;11.99;66.50;99166.16;18431280;32;20114;-60
2022/11/17 22:13:03;;;;;;;1.92;0.95;;;;;;;11.94;66.64;99154.94;18430879;32;20736;-60
2022/11/17 22:23:08;;;;;;;1.50;1.40;;;;;;;11.93;66.06;99150.62;18431521;32;20124;-60
2022/11/17 22:33:11;;;;;;;4.07;1.98;;;;;;;11.72;66.41;99145.09;18429275;32;20111;-60
2022/11/17 22:43:16;;;;;;;2.10;1.58;;;;;;;11.62;66.33;99130.56;18428893;32;20464;-61
2022/11/17 22:53:19;;;;;;;2.67;1.92;;;;;;;11.54;66.14;99120.31;18430035;32;20170;-60
2022/11/17 23:03:23;;;;;;;1.05;1.05;;;;;;;11.26;66.19;99125.41;18436730;32;20104;-60
2022/11/17 23:13:27;;;;;;;1.27;1.27;;;;;;;10.96;66.00;99121.75;18436394;32;20073;-60
2022/11/17 23:23:33;;;;;;;2.33;1.70;;;;;;;10.76;65.92;99110.94;18435905;32;20108;-60
2022/11/17 23:33:38;;;;;;;1.12;1.05;;;;;;;10.49;65.84;99121.12;18436797;32;20083;-60
2022/11/17 23:43:42;;;;;;;3.75;2.35;;;;;;;10.22;66.20;99112.97;18436485;32;20397;-60
2022/11/17 23:53:46;;;;;;;0.93;0.93;;;;;;;9.98;65.67;99125.66;18434924;32;20781;-60
